Terminal Aerodrome Forecast
Issued by NWS

Home | Current Version | Previous Version | Text Only | Print | Product List | Glossary On
Versions: 1 2 3 4 5 6 7 8 9 10 11 12 13
000
FTUS46 KMFR 042339
TAFOTH
TAF
KOTH 042339Z 0500/0524 36020G30KT P6SM -SHRA OVC018
     FM050400 36014G22KT P6SM VCSH OVC015
     FM051800 36022G30KT P6SM VCSH SCT020 BKN035=

USA.gov is the U.S. government's official web portal to all federal, state and local government web resources and services.